Albany, LA

6:03 PM CST on November 21, 2014 (GMT -0600)
Hungarian Settlement | Change Station
CLOSE
Current Station
Personal Weather Station
Location: Albany, LA
Elevation: 52 ft
Nearby Weather Stations

Elev 52 ft 30.49 °N, 90.58 °W | Updated 15 minutes ago

Clear
Clear
60.8 °F
Feels Like 60.8 °F
N
3.7
Wind Variable Wind from South

Today
High -- | Low -- °F
--% Chance of Precip.
Yesterday
High -- | Low -- °F
Precip. -- in
6:33 AM 5:02 PM
Waning Crescent, 0% visible
Pressure 30.28 in
Visibility 10.0 miles
Clouds Clear
Dew Point 54 °F
Humidity 78%
Rainfall 0.00 in
Snow Depth Not available.
UV 0 out of 12
Pollen 2.40 out of 12
Air Quality Not available.
Flu Activity Not available.
METAR KHDC 212355Z AUTO 12005KT 10SM CLR 16/10 A3028 RMK AO2

More Conditions Fewer Conditions

Pressure 30.28 in
Visibility 10.0 miles
Clouds Clear
Dew Point 54 °F
Humidity 78%
Rainfall 0.00 in
Snow Depth Not available.
UV 0 out of 12
Pollen 2.40 out of 12
Air Quality Not available.
Flu Activity Not available.
METAR KHDC 212355Z AUTO 12005KT 10SM CLR 16/10 A3028 RMK AO2

More Conditions Fewer Conditions

10-Day Weather Forecast

Almanac

Astronomy

Nov. 21, 2014 Rise Set
Actual Time
Civil Twilight
Nautical Twilight
Astronomical Twilight
Moon
Length of Visible Light
Length of Day
Tomorrow will be .
, % of the Moon is Illuminated

Today's Extremes

State Highs State Lows

Community

WunderPhotos

Upload Photos

1,772,741 photos uploaded!

WunderBlogs® & News

Nearby

Air Quality

  Air Quality AQ Index Pollutant
Not available.

Snow Depth

Station Depth Elevation

Earthquake Activity

City Distance Mag. Time & Date
Minimum magnitude displayed is 2.5.

Coastal Water Temperatures

Place Temperature

Nearby Weather Stations